sensor_id;sensor_type;location;lat;lon;timestamp;P1;durP1;ratioP1;P2;durP2;ratioP2
75787;SDS011;64406;50.024;14.492;2023-06-14T00:00:51;5.05;;;3.88;;
75787;SDS011;64406;50.024;14.492;2023-06-14T00:03:37;4.55;;;4.00;;
75787;SDS011;64406;50.024;14.492;2023-06-14T00:06:04;6.88;;;4.10;;
75787;SDS011;64406;50.024;14.492;2023-06-14T00:08:30;5.72;;;4.28;;
75787;SDS011;64406;50.024;14.492;2023-06-14T00:10:55;6.05;;;4.25;;
75787;SDS011;64406;50.024;14.492;2023-06-14T00:13:21;4.30;;;3.22;;
75787;SDS011;64406;50.024;14.492;2023-06-14T00:15:47;4.50;;;3.42;;
75787;SDS011;64406;50.024;14.492;2023-06-14T00:18:12;4.55;;;3.55;;
75787;SDS011;64406;50.024;14.492;2023-06-14T00:20:38;6.97;;;3.92;;
75787;SDS011;64406;50.024;14.492;2023-06-14T00:23:06;5.95;;;3.60;;
75787;SDS011;64406;50.024;14.492;2023-06-14T00:25:32;4.35;;;3.45;;
75787;SDS011;64406;50.024;14.492;2023-06-14T00:27:58;6.50;;;4.50;;
75787;SDS011;64406;50.024;14.492;2023-06-14T00:30:24;5.07;;;3.72;;
75787;SDS011;64406;50.024;14.492;2023-06-14T00:32:50;4.57;;;3.97;;
75787;SDS011;64406;50.024;14.492;2023-06-14T00:35:16;5.03;;;4.30;;
75787;SDS011;64406;50.024;14.492;2023-06-14T00:37:42;6.05;;;3.92;;
75787;SDS011;64406;50.024;14.492;2023-06-14T00:40:08;5.10;;;3.92;;
75787;SDS011;64406;50.024;14.492;2023-06-14T00:42:33;4.95;;;3.83;;
75787;SDS011;64406;50.024;14.492;2023-06-14T00:44:59;6.60;;;3.90;;
75787;SDS011;64406;50.024;14.492;2023-06-14T00:47:25;5.68;;;4.38;;
75787;SDS011;64406;50.024;14.492;2023-06-14T00:49:53;6.30;;;3.50;;
75787;SDS011;64406;50.024;14.492;2023-06-14T00:52:19;5.90;;;3.95;;
75787;SDS011;64406;50.024;14.492;2023-06-14T00:54:45;6.38;;;4.40;;
75787;SDS011;64406;50.024;14.492;2023-06-14T00:57:11;7.30;;;4.35;;
75787;SDS011;64406;50.024;14.492;2023-06-14T00:59:44;6.75;;;4.20;;
75787;SDS011;64406;50.024;14.492;2023-06-14T01:02:11;4.78;;;4.00;;
75787;SDS011;64406;50.024;14.492;2023-06-14T01:04:37;5.88;;;4.43;;
75787;SDS011;64406;50.024;14.492;2023-06-14T01:07:20;6.25;;;4.35;;
75787;SDS011;64406;50.024;14.492;2023-06-14T01:10:15;4.40;;;3.53;;
75787;SDS011;64406;50.024;14.492;2023-06-14T01:15:41;8.23;;;4.50;;
75787;SDS011;64406;50.024;14.492;2023-06-14T01:18:09;5.18;;;4.22;;
75787;SDS011;64406;50.024;14.492;2023-06-14T01:20:43;6.85;;;4.13;;
75787;SDS011;64406;50.024;14.492;2023-06-14T01:23:10;5.20;;;4.30;;
75787;SDS011;64406;50.024;14.492;2023-06-14T01:25:40;5.43;;;4.13;;
75787;SDS011;64406;50.024;14.492;2023-06-14T01:28:09;7.65;;;5.00;;
75787;SDS011;64406;50.024;14.492;2023-06-14T01:30:37;5.85;;;4.45;;
75787;SDS011;64406;50.024;14.492;2023-06-14T01:33:04;6.50;;;4.60;;
75787;SDS011;64406;50.024;14.492;2023-06-14T01:35:31;6.20;;;4.63;;
75787;SDS011;64406;50.024;14.492;2023-06-14T01:37:56;7.65;;;4.88;;
75787;SDS011;64406;50.024;14.492;2023-06-14T01:40:23;6.88;;;4.53;;
75787;SDS011;64406;50.024;14.492;2023-06-14T01:42:50;6.00;;;4.45;;
75787;SDS011;64406;50.024;14.492;2023-06-14T01:45:17;5.82;;;4.05;;
75787;SDS011;64406;50.024;14.492;2023-06-14T01:47:44;7.40;;;4.30;;
75787;SDS011;64406;50.024;14.492;2023-06-14T01:50:11;6.65;;;4.85;;
75787;SDS011;64406;50.024;14.492;2023-06-14T01:52:37;7.68;;;4.40;;
75787;SDS011;64406;50.024;14.492;2023-06-14T01:55:04;6.28;;;5.05;;
75787;SDS011;64406;50.024;14.492;2023-06-14T01:57:31;6.68;;;4.95;;
75787;SDS011;64406;50.024;14.492;2023-06-14T01:59:57;7.85;;;4.82;;
75787;SDS011;64406;50.024;14.492;2023-06-14T02:02:22;6.55;;;5.00;;
75787;SDS011;64406;50.024;14.492;2023-06-14T02:04:48;6.75;;;5.30;;
75787;SDS011;64406;50.024;14.492;2023-06-14T02:07:14;7.15;;;5.07;;
75787;SDS011;64406;50.024;14.492;2023-06-14T02:09:40;8.20;;;5.82;;
75787;SDS011;64406;50.024;14.492;2023-06-14T02:12:06;9.25;;;6.03;;
75787;SDS011;64406;50.024;14.492;2023-06-14T02:14:32;7.47;;;6.05;;
75787;SDS011;64406;50.024;14.492;2023-06-14T02:16:58;8.05;;;6.22;;
75787;SDS011;64406;50.024;14.492;2023-06-14T02:19:26;8.57;;;6.60;;
75787;SDS011;64406;50.024;14.492;2023-06-14T02:21:52;9.77;;;7.40;;
75787;SDS011;64406;50.024;14.492;2023-06-14T02:24:18;9.52;;;7.30;;
75787;SDS011;64406;50.024;14.492;2023-06-14T02:26:43;7.53;;;6.13;;
75787;SDS011;64406;50.024;14.492;2023-06-14T02:29:09;9.55;;;6.75;;
75787;SDS011;64406;50.024;14.492;2023-06-14T02:31:37;9.45;;;7.13;;
75787;SDS011;64406;50.024;14.492;2023-06-14T02:34:03;8.60;;;6.40;;
75787;SDS011;64406;50.024;14.492;2023-06-14T02:36:29;8.43;;;7.10;;
75787;SDS011;64406;50.024;14.492;2023-06-14T02:38:56;6.78;;;5.85;;
75787;SDS011;64406;50.024;14.492;2023-06-14T02:41:23;8.65;;;6.93;;
75787;SDS011;64406;50.024;14.492;2023-06-14T02:43:49;8.20;;;6.28;;
75787;SDS011;64406;50.024;14.492;2023-06-14T02:46:15;7.18;;;6.28;;
75787;SDS011;64406;50.024;14.492;2023-06-14T02:48:41;7.75;;;5.53;;
75787;SDS011;64406;50.024;14.492;2023-06-14T02:51:06;7.03;;;6.10;;
75787;SDS011;64406;50.024;14.492;2023-06-14T02:53:33;8.63;;;6.93;;
75787;SDS011;64406;50.024;14.492;2023-06-14T02:55:59;9.80;;;7.95;;
75787;SDS011;64406;50.024;14.492;2023-06-14T02:58:26;10.88;;;8.05;;
75787;SDS011;64406;50.024;14.492;2023-06-14T03:00:52;8.23;;;7.10;;
75787;SDS011;64406;50.024;14.492;2023-06-14T03:03:20;9.07;;;6.72;;
75787;SDS011;64406;50.024;14.492;2023-06-14T03:05:47;7.70;;;5.90;;
75787;SDS011;64406;50.024;14.492;2023-06-14T03:08:17;8.15;;;6.07;;
75787;SDS011;64406;50.024;14.492;2023-06-14T03:10:45;8.60;;;6.45;;
75787;SDS011;64406;50.024;14.492;2023-06-14T03:13:15;5.30;;;4.43;;
75787;SDS011;64406;50.024;14.492;2023-06-14T03:15:43;11.68;;;5.45;;
75787;SDS011;64406;50.024;14.492;2023-06-14T03:18:10;7.90;;;5.40;;
75787;SDS011;64406;50.024;14.492;2023-06-14T03:20:37;8.38;;;5.53;;
75787;SDS011;64406;50.024;14.492;2023-06-14T03:23:04;7.22;;;4.90;;
75787;SDS011;64406;50.024;14.492;2023-06-14T03:25:31;9.35;;;5.43;;
75787;SDS011;64406;50.024;14.492;2023-06-14T03:27:58;7.57;;;5.53;;
75787;SDS011;64406;50.024;14.492;2023-06-14T03:30:24;6.15;;;5.07;;
75787;SDS011;64406;50.024;14.492;2023-06-14T03:32:50;8.18;;;5.57;;
75787;SDS011;64406;50.024;14.492;2023-06-14T03:35:20;8.00;;;4.72;;
75787;SDS011;64406;50.024;14.492;2023-06-14T03:37:47;6.53;;;5.15;;
75787;SDS011;64406;50.024;14.492;2023-06-14T03:40:13;9.68;;;5.45;;
75787;SDS011;64406;50.024;14.492;2023-06-14T03:42:41;8.23;;;5.80;;
75787;SDS011;64406;50.024;14.492;2023-06-14T03:45:07;8.18;;;5.22;;
75787;SDS011;64406;50.024;14.492;2023-06-14T03:47:33;8.40;;;5.53;;
75787;SDS011;64406;50.024;14.492;2023-06-14T03:50:00;8.38;;;5.97;;
75787;SDS011;64406;50.024;14.492;2023-06-14T03:52:27;7.22;;;5.05;;
75787;SDS011;64406;50.024;14.492;2023-06-14T03:54:52;6.25;;;4.93;;
75787;SDS011;64406;50.024;14.492;2023-06-14T03:57:18;6.18;;;4.78;;
75787;SDS011;64406;50.024;14.492;2023-06-14T03:59:45;6.07;;;4.97;;
75787;SDS011;64406;50.024;14.492;2023-06-14T04:02:12;14.30;;;5.32;;
75787;SDS011;64406;50.024;14.492;2023-06-14T04:04:41;6.95;;;5.25;;
75787;SDS011;64406;50.024;14.492;2023-06-14T04:07:10;7.85;;;5.38;;
75787;SDS011;64406;50.024;14.492;2023-06-14T04:09:36;9.23;;;6.65;;
75787;SDS011;64406;50.024;14.492;2023-06-14T04:12:03;14.23;;;9.95;;
75787;SDS011;64406;50.024;14.492;2023-06-14T04:14:29;14.75;;;10.55;;
75787;SDS011;64406;50.024;14.492;2023-06-14T04:16:56;14.98;;;11.10;;
75787;SDS011;64406;50.024;14.492;2023-06-14T04:19:21;13.73;;;10.32;;
75787;SDS011;64406;50.024;14.492;2023-06-14T04:21:47;12.75;;;10.25;;
75787;SDS011;64406;50.024;14.492;2023-06-14T04:24:13;10.57;;;9.48;;
75787;SDS011;64406;50.024;14.492;2023-06-14T04:26:39;11.68;;;9.13;;
75787;SDS011;64406;50.024;14.492;2023-06-14T04:29:06;13.35;;;9.85;;
75787;SDS011;64406;50.024;14.492;2023-06-14T04:31:32;15.18;;;10.70;;
75787;SDS011;64406;50.024;14.492;2023-06-14T04:34:04;12.38;;;9.68;;
75787;SDS011;64406;50.024;14.492;2023-06-14T04:36:34;14.65;;;12.32;;
75787;SDS011;64406;50.024;14.492;2023-06-14T04:39:03;14.38;;;11.95;;
75787;SDS011;64406;50.024;14.492;2023-06-14T04:41:29;17.85;;;12.95;;
75787;SDS011;64406;50.024;14.492;2023-06-14T04:44:05;17.25;;;13.13;;
75787;SDS011;64406;50.024;14.492;2023-06-14T04:46:30;15.88;;;11.95;;
75787;SDS011;64406;50.024;14.492;2023-06-14T04:48:57;10.45;;;8.02;;
75787;SDS011;64406;50.024;14.492;2023-06-14T04:51:27;12.13;;;8.23;;
75787;SDS011;64406;50.024;14.492;2023-06-14T04:53:55;8.88;;;7.00;;
75787;SDS011;64406;50.024;14.492;2023-06-14T04:56:26;10.35;;;7.55;;
75787;SDS011;64406;50.024;14.492;2023-06-14T04:58:52;7.20;;;5.95;;
75787;SDS011;64406;50.024;14.492;2023-06-14T05:01:19;8.13;;;5.72;;
75787;SDS011;64406;50.024;14.492;2023-06-14T05:03:46;6.40;;;5.13;;
75787;SDS011;64406;50.024;14.492;2023-06-14T05:06:14;9.93;;;5.22;;
75787;SDS011;64406;50.024;14.492;2023-06-14T05:08:39;7.97;;;5.95;;
75787;SDS011;64406;50.024;14.492;2023-06-14T05:11:05;7.70;;;5.68;;
75787;SDS011;64406;50.024;14.492;2023-06-14T05:13:31;6.00;;;4.85;;
75787;SDS011;64406;50.024;14.492;2023-06-14T05:15:58;7.32;;;5.28;;
75787;SDS011;64406;50.024;14.492;2023-06-14T05:18:24;6.18;;;4.68;;
75787;SDS011;64406;50.024;14.492;2023-06-14T05:20:50;6.45;;;4.78;;
75787;SDS011;64406;50.024;14.492;2023-06-14T05:23:16;7.50;;;4.90;;
75787;SDS011;64406;50.024;14.492;2023-06-14T05:25:42;11.13;;;5.30;;
75787;SDS011;64406;50.024;14.492;2023-06-14T05:28:09;7.47;;;5.55;;
75787;SDS011;64406;50.024;14.492;2023-06-14T05:30:35;5.97;;;5.03;;
75787;SDS011;64406;50.024;14.492;2023-06-14T05:33:03;7.65;;;4.75;;
75787;SDS011;64406;50.024;14.492;2023-06-14T05:35:29;8.60;;;4.68;;
75787;SDS011;64406;50.024;14.492;2023-06-14T05:37:54;7.60;;;5.68;;
75787;SDS011;64406;50.024;14.492;2023-06-14T05:40:20;6.50;;;5.43;;
75787;SDS011;64406;50.024;14.492;2023-06-14T05:42:46;7.18;;;5.03;;
75787;SDS011;64406;50.024;14.492;2023-06-14T05:45:12;6.50;;;4.65;;
75787;SDS011;64406;50.024;14.492;2023-06-14T05:47:37;7.15;;;4.85;;
75787;SDS011;64406;50.024;14.492;2023-06-14T05:50:03;6.32;;;4.70;;
75787;SDS011;64406;50.024;14.492;2023-06-14T05:52:29;7.95;;;4.95;;
75787;SDS011;64406;50.024;14.492;2023-06-14T05:54:57;13.18;;;5.20;;
75787;SDS011;64406;50.024;14.492;2023-06-14T05:57:22;6.65;;;4.28;;
75787;SDS011;64406;50.024;14.492;2023-06-14T05:59:48;8.40;;;4.65;;
75787;SDS011;64406;50.024;14.492;2023-06-14T06:02:15;8.45;;;5.95;;
75787;SDS011;64406;50.024;14.492;2023-06-14T06:04:41;6.00;;;4.45;;
75787;SDS011;64406;50.024;14.492;2023-06-14T06:07:07;4.53;;;3.97;;
75787;SDS011;64406;50.024;14.492;2023-06-14T06:09:32;9.85;;;4.53;;
75787;SDS011;64406;50.024;14.492;2023-06-14T06:11:58;7.20;;;4.60;;
75787;SDS011;64406;50.024;14.492;2023-06-14T06:14:24;6.82;;;4.78;;
75787;SDS011;64406;50.024;14.492;2023-06-14T06:16:50;5.90;;;4.22;;
75787;SDS011;64406;50.024;14.492;2023-06-14T06:19:18;5.40;;;4.35;;
75787;SDS011;64406;50.024;14.492;2023-06-14T06:21:43;5.18;;;4.35;;
75787;SDS011;64406;50.024;14.492;2023-06-14T06:24:09;6.00;;;4.30;;
75787;SDS011;64406;50.024;14.492;2023-06-14T06:26:35;7.53;;;4.45;;
75787;SDS011;64406;50.024;14.492;2023-06-14T06:29:00;6.03;;;4.18;;
75787;SDS011;64406;50.024;14.492;2023-06-14T06:31:26;6.97;;;4.60;;
75787;SDS011;64406;50.024;14.492;2023-06-14T06:33:53;6.53;;;4.55;;
75787;SDS011;64406;50.024;14.492;2023-06-14T06:36:19;9.13;;;5.00;;
75787;SDS011;64406;50.024;14.492;2023-06-14T06:38:47;6.03;;;4.78;;
75787;SDS011;64406;50.024;14.492;2023-06-14T06:41:13;7.30;;;4.85;;
75787;SDS011;64406;50.024;14.492;2023-06-14T06:43:39;6.53;;;4.78;;
75787;SDS011;64406;50.024;14.492;2023-06-14T06:46:04;5.53;;;4.38;;
75787;SDS011;64406;50.024;14.492;2023-06-14T06:48:30;5.78;;;4.47;;
75787;SDS011;64406;50.024;14.492;2023-06-14T06:50:56;7.95;;;5.03;;
75787;SDS011;64406;50.024;14.492;2023-06-14T06:53:22;5.78;;;4.25;;
75787;SDS011;64406;50.024;14.492;2023-06-14T06:55:48;11.15;;;6.00;;
75787;SDS011;64406;50.024;14.492;2023-06-14T06:58:14;8.27;;;4.15;;
75787;SDS011;64406;50.024;14.492;2023-06-14T07:00:39;5.50;;;4.20;;
75787;SDS011;64406;50.024;14.492;2023-06-14T07:03:11;5.38;;;4.07;;
75787;SDS011;64406;50.024;14.492;2023-06-14T07:05:36;8.30;;;4.60;;
75787;SDS011;64406;50.024;14.492;2023-06-14T07:08:04;5.68;;;4.10;;
75787;SDS011;64406;50.024;14.492;2023-06-14T07:10:29;6.82;;;4.07;;
75787;SDS011;64406;50.024;14.492;2023-06-14T07:12:56;6.15;;;4.40;;
75787;SDS011;64406;50.024;14.492;2023-06-14T07:15:21;7.82;;;4.47;;
75787;SDS011;64406;50.024;14.492;2023-06-14T07:17:47;5.47;;;4.50;;
75787;SDS011;64406;50.024;14.492;2023-06-14T07:20:13;7.55;;;4.32;;
75787;SDS011;64406;50.024;14.492;2023-06-14T07:22:40;10.50;;;4.55;;
75787;SDS011;64406;50.024;14.492;2023-06-14T07:25:07;5.72;;;4.57;;
75787;SDS011;64406;50.024;14.492;2023-06-14T07:27:34;5.78;;;4.72;;
75787;SDS011;64406;50.024;14.492;2023-06-14T07:30:00;6.70;;;4.30;;
75787;SDS011;64406;50.024;14.492;2023-06-14T07:32:26;8.55;;;4.43;;
75787;SDS011;64406;50.024;14.492;2023-06-14T07:34:52;5.78;;;4.30;;
75787;SDS011;64406;50.024;14.492;2023-06-14T07:37:18;5.13;;;4.22;;
75787;SDS011;64406;50.024;14.492;2023-06-14T07:39:43;8.43;;;4.97;;
75787;SDS011;64406;50.024;14.492;2023-06-14T07:42:10;7.65;;;5.03;;
75787;SDS011;64406;50.024;14.492;2023-06-14T07:44:36;5.82;;;4.22;;
75787;SDS011;64406;50.024;14.492;2023-06-14T07:47:02;8.30;;;4.90;;
75787;SDS011;64406;50.024;14.492;2023-06-14T07:49:28;6.47;;;4.40;;
75787;SDS011;64406;50.024;14.492;2023-06-14T07:51:58;9.32;;;4.47;;
75787;SDS011;64406;50.024;14.492;2023-06-14T07:54:27;7.25;;;4.32;;
75787;SDS011;64406;50.024;14.492;2023-06-14T07:56:53;6.45;;;4.53;;
75787;SDS011;64406;50.024;14.492;2023-06-14T07:59:19;5.10;;;4.32;;
75787;SDS011;64406;50.024;14.492;2023-06-14T08:01:45;5.90;;;3.83;;
75787;SDS011;64406;50.024;14.492;2023-06-14T08:04:15;5.07;;;3.90;;
75787;SDS011;64406;50.024;14.492;2023-06-14T08:06:41;6.03;;;4.03;;
75787;SDS011;64406;50.024;14.492;2023-06-14T08:09:09;6.22;;;3.85;;
75787;SDS011;64406;50.024;14.492;2023-06-14T08:11:36;6.63;;;3.63;;
75787;SDS011;64406;50.024;14.492;2023-06-14T08:14:02;6.20;;;3.90;;
75787;SDS011;64406;50.024;14.492;2023-06-14T08:16:28;3.45;;;2.90;;
75787;SDS011;64406;50.024;14.492;2023-06-14T08:18:54;4.88;;;3.30;;
75787;SDS011;64406;50.024;14.492;2023-06-14T08:21:20;3.72;;;3.17;;
75787;SDS011;64406;50.024;14.492;2023-06-14T08:23:46;4.93;;;3.65;;
75787;SDS011;64406;50.024;14.492;2023-06-14T08:26:12;7.05;;;4.10;;
75787;SDS011;64406;50.024;14.492;2023-06-14T08:28:38;6.50;;;3.55;;
75787;SDS011;64406;50.024;14.492;2023-06-14T08:31:04;5.47;;;3.13;;
75787;SDS011;64406;50.024;14.492;2023-06-14T08:33:30;4.68;;;3.30;;
75787;SDS011;64406;50.024;14.492;2023-06-14T08:35:59;4.38;;;2.75;;
75787;SDS011;64406;50.024;14.492;2023-06-14T08:38:24;5.65;;;2.83;;
75787;SDS011;64406;50.024;14.492;2023-06-14T08:40:50;7.47;;;3.25;;
75787;SDS011;64406;50.024;14.492;2023-06-14T08:43:19;4.97;;;2.88;;
75787;SDS011;64406;50.024;14.492;2023-06-14T08:45:46;4.68;;;3.53;;
75787;SDS011;64406;50.024;14.492;2023-06-14T08:48:16;5.03;;;3.13;;
75787;SDS011;64406;50.024;14.492;2023-06-14T08:50:45;6.90;;;4.00;;
75787;SDS011;64406;50.024;14.492;2023-06-14T08:53:13;6.55;;;3.25;;
75787;SDS011;64406;50.024;14.492;2023-06-14T08:55:45;4.40;;;3.60;;
75787;SDS011;64406;50.024;14.492;2023-06-14T08:58:11;7.90;;;3.30;;
75787;SDS011;64406;50.024;14.492;2023-06-14T09:00:39;5.75;;;2.92;;
75787;SDS011;64406;50.024;14.492;2023-06-14T09:03:06;4.40;;;2.97;;
75787;SDS011;64406;50.024;14.492;2023-06-14T09:05:38;6.13;;;2.83;;
75787;SDS011;64406;50.024;14.492;2023-06-14T09:08:04;4.97;;;2.60;;
75787;SDS011;64406;50.024;14.492;2023-06-14T09:10:32;4.57;;;2.65;;
75787;SDS011;64406;50.024;14.492;2023-06-14T09:13:00;4.32;;;3.00;;
75787;SDS011;64406;50.024;14.492;2023-06-14T09:15:27;3.83;;;2.80;;
75787;SDS011;64406;50.024;14.492;2023-06-14T09:17:53;3.95;;;3.25;;
75787;SDS011;64406;50.024;14.492;2023-06-14T09:20:19;5.70;;;2.90;;
75787;SDS011;64406;50.024;14.492;2023-06-14T09:22:46;4.28;;;2.92;;
75787;SDS011;64406;50.024;14.492;2023-06-14T09:25:12;6.10;;;3.30;;
75787;SDS011;64406;50.024;14.492;2023-06-14T09:27:40;3.05;;;2.75;;
75787;SDS011;64406;50.024;14.492;2023-06-14T09:30:10;4.82;;;3.42;;
75787;SDS011;64406;50.024;14.492;2023-06-14T09:32:39;4.28;;;3.15;;
75787;SDS011;64406;50.024;14.492;2023-06-14T09:35:06;4.63;;;3.00;;
75787;SDS011;64406;50.024;14.492;2023-06-14T09:37:33;3.20;;;2.80;;
75787;SDS011;64406;50.024;14.492;2023-06-14T09:39:59;5.95;;;3.35;;
75787;SDS011;64406;50.024;14.492;2023-06-14T09:42:26;14.40;;;3.78;;
75787;SDS011;64406;50.024;14.492;2023-06-14T09:44:53;3.58;;;2.95;;
75787;SDS011;64406;50.024;14.492;2023-06-14T09:47:20;6.20;;;3.60;;
75787;SDS011;64406;50.024;14.492;2023-06-14T09:49:51;5.60;;;3.22;;
75787;SDS011;64406;50.024;14.492;2023-06-14T09:52:22;5.63;;;3.95;;
75787;SDS011;64406;50.024;14.492;2023-06-14T09:54:53;6.25;;;3.40;;
75787;SDS011;64406;50.024;14.492;2023-06-14T09:57:27;7.47;;;4.07;;
75787;SDS011;64406;50.024;14.492;2023-06-14T09:59:58;5.22;;;3.63;;
75787;SDS011;64406;50.024;14.492;2023-06-14T10:02:31;6.53;;;3.80;;
75787;SDS011;64406;50.024;14.492;2023-06-14T10:05:09;6.60;;;3.88;;
75787;SDS011;64406;50.024;14.492;2023-06-14T10:07:39;7.68;;;4.57;;
75787;SDS011;64406;50.024;14.492;2023-06-14T10:10:26;6.28;;;3.63;;
75787;SDS011;64406;50.024;14.492;2023-06-14T10:12:53;7.75;;;3.83;;
75787;SDS011;64406;50.024;14.492;2023-06-14T10:15:23;4.50;;;3.35;;
75787;SDS011;64406;50.024;14.492;2023-06-14T10:20:50;5.60;;;3.67;;
75787;SDS011;64406;50.024;14.492;2023-06-14T10:23:37;8.82;;;4.03;;
75787;SDS011;64406;50.024;14.492;2023-06-14T10:26:26;4.20;;;3.60;;
75787;SDS011;64406;50.024;14.492;2023-06-14T10:28:59;4.43;;;3.25;;
75787;SDS011;64406;50.024;14.492;2023-06-14T10:31:41;4.20;;;3.65;;
75787;SDS011;64406;50.024;14.492;2023-06-14T10:34:09;5.15;;;3.80;;
75787;SDS011;64406;50.024;14.492;2023-06-14T10:36:35;6.47;;;3.95;;
75787;SDS011;64406;50.024;14.492;2023-06-14T10:41:34;7.32;;;3.60;;
75787;SDS011;64406;50.024;14.492;2023-06-14T10:46:39;7.90;;;4.00;;
75787;SDS011;64406;50.024;14.492;2023-06-14T10:49:11;8.40;;;3.95;;
75787;SDS011;64406;50.024;14.492;2023-06-14T10:51:38;12.70;;;4.70;;
75787;SDS011;64406;50.024;14.492;2023-06-14T10:54:14;5.53;;;3.88;;
75787;SDS011;64406;50.024;14.492;2023-06-14T10:56:51;4.05;;;3.25;;
75787;SDS011;64406;50.024;14.492;2023-06-14T10:59:17;4.07;;;2.92;;
75787;SDS011;64406;50.024;14.492;2023-06-14T11:04:56;5.57;;;3.75;;
75787;SDS011;64406;50.024;14.492;2023-06-14T11:07:43;7.57;;;3.53;;
75787;SDS011;64406;50.024;14.492;2023-06-14T11:13:08;6.65;;;3.25;;
75787;SDS011;64406;50.024;14.492;2023-06-14T11:15:35;5.68;;;2.88;;
75787;SDS011;64406;50.024;14.492;2023-06-14T11:18:03;6.72;;;3.15;;
75787;SDS011;64406;50.024;14.492;2023-06-14T11:20:30;5.05;;;3.00;;
75787;SDS011;64406;50.024;14.492;2023-06-14T11:22:58;3.25;;;2.90;;
75787;SDS011;64406;50.024;14.492;2023-06-14T11:25:24;3.53;;;2.95;;
75787;SDS011;64406;50.024;14.492;2023-06-14T11:27:51;7.43;;;3.63;;
75787;SDS011;64406;50.024;14.492;2023-06-14T11:30:17;3.40;;;3.08;;
75787;SDS011;64406;50.024;14.492;2023-06-14T11:32:46;4.75;;;3.03;;
75787;SDS011;64406;50.024;14.492;2023-06-14T11:35:14;3.50;;;3.20;;
75787;SDS011;64406;50.024;14.492;2023-06-14T11:37:41;3.22;;;2.80;;
75787;SDS011;64406;50.024;14.492;2023-06-14T11:40:07;4.40;;;3.30;;
75787;SDS011;64406;50.024;14.492;2023-06-14T11:42:35;4.22;;;3.10;;
75787;SDS011;64406;50.024;14.492;2023-06-14T11:45:02;3.92;;;3.35;;
75787;SDS011;64406;50.024;14.492;2023-06-14T11:47:32;3.22;;;2.92;;
75787;SDS011;64406;50.024;14.492;2023-06-14T11:50:00;4.20;;;3.08;;
75787;SDS011;64406;50.024;14.492;2023-06-14T11:52:26;5.63;;;3.47;;
75787;SDS011;64406;50.024;14.492;2023-06-14T11:54:52;3.67;;;3.25;;
75787;SDS011;64406;50.024;14.492;2023-06-14T11:59:51;4.03;;;3.15;;
75787;SDS011;64406;50.024;14.492;2023-06-14T12:02:18;3.30;;;2.83;;
75787;SDS011;64406;50.024;14.492;2023-06-14T12:04:46;4.00;;;3.25;;
75787;SDS011;64406;50.024;14.492;2023-06-14T12:07:14;4.55;;;3.42;;
75787;SDS011;64406;50.024;14.492;2023-06-14T12:12:21;5.07;;;3.25;;
75787;SDS011;64406;50.024;14.492;2023-06-14T12:14:47;6.65;;;3.17;;
75787;SDS011;64406;50.024;14.492;2023-06-14T12:17:16;4.18;;;2.85;;
75787;SDS011;64406;50.024;14.492;2023-06-14T12:19:43;3.75;;;3.13;;
75787;SDS011;64406;50.024;14.492;2023-06-14T12:22:10;3.90;;;2.75;;
75787;SDS011;64406;50.024;14.492;2023-06-14T12:24:37;4.55;;;3.20;;
75787;SDS011;64406;50.024;14.492;2023-06-14T12:27:05;3.50;;;3.20;;
75787;SDS011;64406;50.024;14.492;2023-06-14T12:29:31;3.63;;;2.92;;
75787;SDS011;64406;50.024;14.492;2023-06-14T12:31:57;4.25;;;3.33;;
75787;SDS011;64406;50.024;14.492;2023-06-14T12:34:26;3.78;;;3.15;;
75787;SDS011;64406;50.024;14.492;2023-06-14T12:36:53;3.42;;;2.95;;
75787;SDS011;64406;50.024;14.492;2023-06-14T12:39:19;5.30;;;3.35;;
75787;SDS011;64406;50.024;14.492;2023-06-14T12:41:46;6.95;;;3.53;;
75787;SDS011;64406;50.024;14.492;2023-06-14T12:44:12;4.53;;;3.08;;
75787;SDS011;64406;50.024;14.492;2023-06-14T12:46:41;6.03;;;3.10;;
75787;SDS011;64406;50.024;14.492;2023-06-14T12:49:09;3.65;;;2.90;;
75787;SDS011;64406;50.024;14.492;2023-06-14T12:51:36;4.10;;;3.08;;
75787;SDS011;64406;50.024;14.492;2023-06-14T12:54:05;3.75;;;3.35;;
75787;SDS011;64406;50.024;14.492;2023-06-14T12:56:32;4.45;;;3.33;;
75787;SDS011;64406;50.024;14.492;2023-06-14T12:58:58;6.28;;;3.28;;
75787;SDS011;64406;50.024;14.492;2023-06-14T13:01:24;4.07;;;2.97;;
75787;SDS011;64406;50.024;14.492;2023-06-14T13:03:49;3.63;;;3.30;;
75787;SDS011;64406;50.024;14.492;2023-06-14T13:06:17;4.30;;;3.40;;
75787;SDS011;64406;50.024;14.492;2023-06-14T13:08:43;3.90;;;3.13;;
75787;SDS011;64406;50.024;14.492;2023-06-14T13:11:08;4.72;;;3.28;;
75787;SDS011;64406;50.024;14.492;2023-06-14T13:13:34;3.90;;;2.85;;
75787;SDS011;64406;50.024;14.492;2023-06-14T13:16:00;3.85;;;2.63;;
75787;SDS011;64406;50.024;14.492;2023-06-14T13:18:26;2.97;;;2.67;;
75787;SDS011;64406;50.024;14.492;2023-06-14T13:20:52;3.13;;;2.80;;
75787;SDS011;64406;50.024;14.492;2023-06-14T13:23:17;3.45;;;2.88;;
75787;SDS011;64406;50.024;14.492;2023-06-14T13:25:43;4.25;;;3.10;;
75787;SDS011;64406;50.024;14.492;2023-06-14T13:28:09;6.50;;;3.08;;
75787;SDS011;64406;50.024;14.492;2023-06-14T13:30:35;4.75;;;3.15;;
75787;SDS011;64406;50.024;14.492;2023-06-14T13:33:02;3.65;;;2.67;;
75787;SDS011;64406;50.024;14.492;2023-06-14T13:35:28;5.18;;;3.40;;
75787;SDS011;64406;50.024;14.492;2023-06-14T13:37:54;3.30;;;2.80;;
75787;SDS011;64406;50.024;14.492;2023-06-14T13:40:20;4.50;;;2.75;;
75787;SDS011;64406;50.024;14.492;2023-06-14T13:42:46;3.92;;;2.63;;
75787;SDS011;64406;50.024;14.492;2023-06-14T13:45:13;3.65;;;2.65;;
75787;SDS011;64406;50.024;14.492;2023-06-14T13:47:38;3.17;;;2.80;;
75787;SDS011;64406;50.024;14.492;2023-06-14T13:50:05;5.43;;;2.88;;
75787;SDS011;64406;50.024;14.492;2023-06-14T13:52:31;2.78;;;2.53;;
75787;SDS011;64406;50.024;14.492;2023-06-14T13:54:56;3.38;;;2.80;;
75787;SDS011;64406;50.024;14.492;2023-06-14T13:57:22;3.53;;;2.65;;
75787;SDS011;64406;50.024;14.492;2023-06-14T13:59:48;3.25;;;2.83;;
75787;SDS011;64406;50.024;14.492;2023-06-14T14:02:14;5.00;;;2.70;;
75787;SDS011;64406;50.024;14.492;2023-06-14T14:04:40;5.45;;;3.30;;
75787;SDS011;64406;50.024;14.492;2023-06-14T14:07:06;6.43;;;3.25;;
75787;SDS011;64406;50.024;14.492;2023-06-14T14:09:33;4.43;;;2.85;;
75787;SDS011;64406;50.024;14.492;2023-06-14T14:12:03;5.00;;;3.08;;
75787;SDS011;64406;50.024;14.492;2023-06-14T14:14:30;3.83;;;3.28;;
75787;SDS011;64406;50.024;14.492;2023-06-14T14:16:57;5.55;;;2.97;;
75787;SDS011;64406;50.024;14.492;2023-06-14T14:19:23;7.03;;;3.35;;
75787;SDS011;64406;50.024;14.492;2023-06-14T14:21:49;3.85;;;2.92;;
75787;SDS011;64406;50.024;14.492;2023-06-14T14:24:15;4.45;;;2.97;;
75787;SDS011;64406;50.024;14.492;2023-06-14T14:26:41;6.00;;;3.20;;
75787;SDS011;64406;50.024;14.492;2023-06-14T14:29:07;4.05;;;2.85;;
75787;SDS011;64406;50.024;14.492;2023-06-14T14:31:33;4.05;;;3.00;;
75787;SDS011;64406;50.024;14.492;2023-06-14T14:33:59;4.22;;;2.85;;
75787;SDS011;64406;50.024;14.492;2023-06-14T14:36:25;6.97;;;3.10;;
75787;SDS011;64406;50.024;14.492;2023-06-14T14:38:50;4.30;;;3.65;;
75787;SDS011;64406;50.024;14.492;2023-06-14T14:41:19;3.60;;;3.25;;
75787;SDS011;64406;50.024;14.492;2023-06-14T14:43:45;3.78;;;3.05;;
75787;SDS011;64406;50.024;14.492;2023-06-14T14:46:10;3.28;;;2.97;;
75787;SDS011;64406;50.024;14.492;2023-06-14T14:48:36;3.35;;;2.90;;
75787;SDS011;64406;50.024;14.492;2023-06-14T14:51:02;3.45;;;3.13;;
75787;SDS011;64406;50.024;14.492;2023-06-14T14:53:27;3.42;;;2.92;;
75787;SDS011;64406;50.024;14.492;2023-06-14T14:55:53;4.97;;;2.88;;